EGPH

Edinburgh Airport

Edinburgh, United Kingdom
METAR EGPH 241920Z 04006KT CAVOK 01/M03 Q1027
Observed Flight Rules
Feb-24 @ 19:20 UTC (50 minutes ago) Visual Flight Rules
Wind Visibility Clouds
40° at 6 knots 10,000+ meters
  • Clear skies
Temperatures Readings
Current 1°C / 34°F
Dewpoint -3°C / 27°F
Humidity 75%
Altimeter 30.32" Hg
Pressure 1027 hPa
Elevation 41
METAR EGPH 241920Z 04006KT CAVOK 01/M03 Q1027
Observed Flight Rules
Feb-24 @ 19:20 UTC
(50 minutes ago)
VFR
Wind Visibility
40° at 6 knots 10,000+ meters
Clouds
  • Clear skies
Temperature Dewpoint
1°C / 34°F -3°C / 27°F
Humidity Altimeter Pressure
75% 30.32" Hg 1027 hPa